createdAt,value
2018-05-01T00:03:24.383Z,97526.66
2018-05-01T00:23:56.581Z,97549.44
2018-05-01T00:44:32.062Z,97537.13
2018-05-01T01:05:04.972Z,97563.84
2018-05-01T01:25:36.464Z,97580.38
2018-05-01T01:46:06.303Z,97585.97
2018-05-01T02:06:36.357Z,97610.77
2018-05-01T02:27:05.791Z,97600.87
2018-05-01T02:47:35.842Z,97610.95
2018-05-01T03:08:08.038Z,97640.09
2018-05-01T03:28:36.247Z,97663.32
2018-05-01T03:49:07.532Z,97679.00
2018-05-01T04:09:39.723Z,97695.09
2018-05-01T04:30:12.844Z,97711.05
2018-05-01T04:50:45.047Z,97738.28
2018-05-01T05:11:17.244Z,97770.12
2018-05-01T05:31:47.295Z,97782.63
2018-05-01T05:52:17.652Z,97816.08
2018-05-01T06:12:58.168Z,97848.43
2018-05-01T06:33:26.043Z,97868.52
2018-05-01T06:54:00.546Z,97894.31
2018-05-01T07:14:30.443Z,97905.25
2018-05-01T07:35:01.725Z,97925.16
2018-05-01T07:55:33.929Z,97949.36
2018-05-01T08:16:04.902Z,97958.13
2018-05-01T08:36:36.176Z,97956.67
2018-05-01T08:57:09.595Z,97951.37
2018-05-01T09:17:40.583Z,97967.92
2018-05-01T09:38:12.766Z,97983.13
2018-05-01T09:58:48.660Z,97996.81
2018-05-01T10:19:22.544Z,97994.23
2018-05-01T10:39:55.516Z,97997.81
2018-05-01T11:00:32.979Z,97995.59
2018-05-01T11:21:07.225Z,97994.33
2018-05-01T11:41:40.106Z,97998.02
2018-05-01T12:02:13.660Z,97998.81
2018-05-01T12:22:46.649Z,98021.91
2018-05-01T12:43:19.778Z,98027.84
2018-05-01T13:03:55.664Z,98030.59
2018-05-01T13:24:31.239Z,98024.20
2018-05-01T13:45:08.791Z,98020.85
2018-05-01T14:05:48.064Z,98006.99
2018-05-01T14:26:23.288Z,98012.37
2018-05-01T14:46:56.602Z,98007.77
2018-05-01T15:07:29.512Z,97988.30
2018-05-01T15:28:06.958Z,97984.23
2018-05-01T15:48:42.189Z,97983.33
2018-05-01T16:09:14.038Z,97972.70
2018-05-01T16:29:49.621Z,97959.64
2018-05-01T16:50:23.526Z,97952.41
2018-05-01T17:10:54.932Z,97961.66
2018-05-01T17:31:28.059Z,97954.18
2018-05-01T17:52:00.261Z,97966.08
2018-05-01T18:12:38.793Z,98000.94
2018-05-01T18:33:10.493Z,98013.34
2018-05-01T18:53:44.843Z,98026.66
2018-05-01T19:14:20.113Z,98046.14
2018-05-01T19:34:52.564Z,98071.35
2018-05-01T19:55:27.588Z,98088.05
2018-05-01T20:16:03.787Z,98094.87
2018-05-01T20:36:37.838Z,98088.77
2018-05-01T20:57:12.174Z,98096.28
2018-05-01T21:17:47.447Z,98106.94
2018-05-01T21:38:19.654Z,98115.91
2018-05-01T21:58:58.160Z,98115.06
2018-05-01T22:19:32.035Z,98105.08
2018-05-01T22:40:06.382Z,98124.91
2018-05-01T23:00:41.664Z,98139.84
2018-05-01T23:21:14.775Z,98142.48
2018-05-01T23:41:50.054Z,98136.27
